Terminal Aerodrome Forecast
Issued by NWS Denver/Boulder, CO

Home | Current Version | Previous Version | Text Only | Print | Product List | Glossary On
Versions: 1 2 3 4 5 6 7 8 9 10 11 12 13 14 15 16 17 18 19 20 21 22 23 24 25 26 27 28 29 30 31 32 33 34 35 36 37 38 39 40 41 42 43 44 45 46 47 48 49 50
000
FTUS45 KBOU 201734
TAFDEN
TAF
KDEN 201734Z 2018/2124 08006KT P6SM FEW080 SCT120 SCT160
     FM202100 05007KT P6SM SCT080 BKN120
      TEMPO 2021/2101 VRB20G35KT -TSRA BKN070CB
     FM210100 32007KT P6SM SCT080 BKN120
     FM210300 24007KT P6SM SCT120 SCT200
     FM210600 20010KT P6SM SCT120 SCT200
     FM211500 VRB05KT P6SM FEW120 FEW200
     FM211800 12005KT P6SM FEW080 SCT120=

USA.gov is the U.S. government's official web portal to all federal, state and local government web resources and services.